Time;durP1;ratioP1;P1;durP2;ratioP2;P2;SDS_P1;SDS_P2;PMS_P1;PMS_P2;Temp;Humidity;BMP_temperature;BMP_pressure;BME280_temperature;BME280_humidity;BME280_pressure;Samples;Min_cycle;Max_cycle;Signal;HPM_P1;HPM_P2
2022/11/15 00:01:30;;;;;;;2.63;2.42;;;;;;;20.72;34.39;99984.31;4499050;28;20624;-61
2022/11/15 00:03:58;;;;;;;2.78;2.13;;;;;;;20.72;34.54;99987.19;4502269;28;20046;-63
2022/11/15 00:06:28;;;;;;;2.50;2.20;;;;;;;20.72;34.28;99984.31;4503178;28;21146;-62
2022/11/15 00:09:00;;;;;;;2.80;2.40;;;;;;;20.72;34.75;99980.66;4499981;28;20046;-59
2022/11/15 00:11:29;;;;;;;2.45;2.17;;;;;;;20.71;34.79;99982.69;4501114;28;20042;-60
2022/11/15 00:14:02;;;;;;;2.40;2.20;;;;;;;20.68;34.90;99976.88;4502868;28;20034;-61
2022/11/15 00:16:31;;;;;;;2.42;2.20;;;;;;;20.67;34.74;99978.09;4502655;28;20137;-60
2022/11/15 00:19:00;;;;;;;2.28;2.08;;;;;;;20.69;34.80;99979.34;4503252;28;20042;-60
2022/11/15 00:21:29;;;;;;;2.10;1.90;;;;;;;20.70;34.85;99977.31;4502520;28;20755;-60
2022/11/15 00:23:58;;;;;;;2.70;2.40;;;;;;;20.69;35.09;99973.63;4503235;28;20038;-60
2022/11/15 00:26:27;;;;;;;2.47;2.20;;;;;;;20.70;35.05;99983.06;4502911;28;20042;-60
2022/11/15 00:28:56;;;;;;;2.30;2.10;;;;;;;20.68;35.07;99971.97;4499729;28;20042;-60
2022/11/15 00:31:25;;;;;;;2.67;2.10;;;;;;;20.64;34.94;99973.13;4502730;28;20046;-60
2022/11/15 00:33:54;;;;;;;2.35;2.10;;;;;;;20.67;35.28;99973.19;4502752;28;20054;-61
2022/11/15 00:36:23;;;;;;;2.85;1.88;;;;;;;20.52;35.51;99947.50;4498460;28;20046;-60
2022/11/15 00:38:52;;;;;;;2.58;2.10;;;;;;;20.64;35.56;99967.38;4503028;28;20069;-60
2022/11/15 00:41:21;;;;;;;3.00;2.10;;;;;;;20.67;35.82;99972.34;4513572;28;20053;-60
2022/11/15 00:43:50;;;;;;;2.58;2.10;;;;;;;20.66;35.85;99970.72;4494724;28;20616;-61
2022/11/15 00:46:19;;;;;;;2.60;2.20;;;;;;;20.63;35.86;99960.81;4503549;28;20030;-60
2022/11/15 00:48:48;;;;;;;2.15;1.92;;;;;;;20.66;36.08;99962.91;4503351;28;20785;-60
2022/11/15 00:51:17;;;;;;;2.10;1.75;;;;;;;20.61;36.54;99957.50;4502943;28;20042;-60
2022/11/15 00:53:46;;;;;;;2.20;2.00;;;;;;;20.67;36.67;99969.50;4502952;28;20089;-60
2022/11/15 00:56:15;;;;;;;2.35;2.10;;;;;;;20.65;36.63;99957.56;4503153;28;20046;-61
2022/11/15 00:58:44;;;;;;;2.78;2.08;;;;;;;20.65;36.84;99951.84;4503279;28;20572;-60
2022/11/15 01:01:14;;;;;;;2.00;1.80;;;;;;;20.63;37.36;99942.78;4502253;28;20054;-61
2022/11/15 01:03:43;;;;;;;2.33;2.05;;;;;;;20.65;37.73;99938.34;4502501;28;20050;-60
2022/11/15 01:06:12;;;;;;;2.80;1.92;;;;;;;20.65;37.76;99931.75;4503079;28;20076;-60
2022/11/15 01:08:41;;;;;;;2.35;1.75;;;;;;;20.62;37.67;99941.13;4499448;28;20046;-60
2022/11/15 01:11:11;;;;;;;2.20;2.00;;;;;;;20.65;37.78;99943.22;4503355;28;20038;-60
2022/11/15 01:13:41;;;;;;;1.92;1.73;;;;;;;20.63;37.58;99923.53;4498347;28;20050;-60
2022/11/15 01:16:13;;;;;;;2.55;1.98;;;;;;;20.63;38.20;99926.41;4502589;28;20525;-61
2022/11/15 01:18:42;;;;;;;2.10;1.90;;;;;;;20.61;38.19;99925.97;4503153;28;20833;-62
2022/11/15 01:21:14;;;;;;;2.10;1.90;;;;;;;20.61;37.80;99922.28;4499755;28;20069;-60
2022/11/15 01:23:44;;;;;;;2.20;1.80;;;;;;;20.62;38.31;99918.19;4499077;28;20501;-60
2022/11/15 01:26:15;;;;;;;2.17;1.70;;;;;;;20.62;37.96;99924.75;4502973;28;20074;-60
2022/11/15 01:28:44;;;;;;;2.30;1.90;;;;;;;20.60;37.97;99915.72;4503061;28;20073;-61
2022/11/15 01:31:15;;;;;;;2.00;1.80;;;;;;;20.61;38.43;99916.56;4501991;28;20045;-60
2022/11/15 01:33:45;;;;;;;2.30;1.90;;;;;;;20.62;38.39;99915.31;4502877;28;20054;-61
2022/11/15 01:36:23;;;;;;;2.55;2.08;;;;;;;20.61;38.21;99910.81;4502844;28;20612;-60
2022/11/15 01:38:54;;;;;;;2.00;1.80;;;;;;;20.61;38.30;99916.56;4503119;28;20926;-61
2022/11/15 01:41:30;;;;;;;2.97;2.10;;;;;;;20.61;38.45;99919.41;4502746;28;20046;-61
2022/11/15 01:44:33;;;;;;;2.45;2.00;;;;;;;20.60;38.46;99918.56;4502679;28;20120;-61
2022/11/15 01:47:08;;;;;;;2.63;2.10;;;;;;;20.60;38.52;99920.59;4502335;28;20046;-61
2022/11/15 01:49:41;;;;;;;3.08;2.03;;;;;;;20.50;38.68;99904.06;4502332;28;20160;-61
2022/11/15 01:52:15;;;;;;;2.28;2.00;;;;;;;20.60;38.70;99917.75;4502446;28;20085;-61
2022/11/15 01:54:45;;;;;;;2.63;2.00;;;;;;;20.56;39.03;99911.97;4502466;28;20125;-60
2022/11/15 01:57:14;;;;;;;2.20;1.80;;;;;;;20.58;39.09;99923.84;4502466;28;20137;-60
2022/11/15 01:59:45;;;;;;;3.50;2.05;;;;;;;20.57;38.72;99921.38;4502870;28;20042;-60
2022/11/15 02:02:14;;;;;;;2.78;1.90;;;;;;;20.55;38.70;99910.28;4501884;28;20042;-60
2022/11/15 02:04:46;;;;;;;2.42;2.03;;;;;;;20.57;39.02;99913.63;4502357;28;20081;-61
2022/11/15 02:07:19;;;;;;;2.47;2.10;;;;;;;20.57;39.10;99907.03;4499010;28;20573;-61
2022/11/15 02:09:50;;;;;;;2.83;2.00;;;;;;;20.58;39.51;99911.59;4502637;28;20164;-61
2022/11/15 02:12:21;;;;;;;2.47;1.90;;;;;;;20.55;39.47;99906.63;4502336;28;20041;-61
2022/11/15 02:14:54;;;;;;;3.30;2.05;;;;;;;20.53;39.50;99894.69;4499420;28;20046;-60
2022/11/15 02:17:36;;;;;;;2.00;1.80;;;;;;;20.56;39.24;99908.25;4502785;28;20042;-60
2022/11/15 02:20:30;;;;;;;2.05;1.85;;;;;;;20.56;39.33;99908.25;4502321;28;21216;-61
2022/11/15 02:23:33;;;;;;;2.50;1.73;;;;;;;20.56;39.47;99905.41;4501789;28;20588;-60
2022/11/15 02:26:18;;;;;;;3.20;2.30;;;;;;;20.55;39.42;99900.88;4501749;28;20644;-61
2022/11/15 02:28:56;;;;;;;2.45;2.10;;;;;;;20.55;39.26;99901.69;4502858;28;20038;-60
2022/11/15 02:31:25;;;;;;;2.80;2.28;;;;;;;20.54;39.34;99899.22;4502826;28;20041;-60
2022/11/15 02:34:04;;;;;;;2.92;2.17;;;;;;;20.43;39.83;99878.13;4502253;28;20104;-60
2022/11/15 02:37:02;;;;;;;2.30;1.92;;;;;;;20.50;39.98;99886.88;4502891;28;20045;-57
2022/11/15 02:39:41;;;;;;;2.47;1.95;;;;;;;20.54;39.96;99893.47;4485863;28;20050;-59
2022/11/15 02:45:18;;;;;;;2.28;2.08;;;;;;;20.53;40.12;99897.56;4502406;28;20046;-60
2022/11/15 02:47:51;;;;;;;2.97;2.13;;;;;;;20.52;40.01;99891.00;4502650;28;20929;-60
2022/11/15 02:50:24;;;;;;;2.40;2.00;;;;;;;20.50;40.19;99881.13;4502173;28;20711;-61
2022/11/15 02:52:54;;;;;;;3.10;2.33;;;;;;;20.52;40.39;99884.44;4502818;28;21771;-60
2022/11/15 02:55:35;;;;;;;2.40;2.10;;;;;;;20.51;40.57;99877.88;4502713;28;21078;-60
2022/11/15 02:58:23;;;;;;;2.60;2.20;;;;;;;20.50;40.27;99886.88;4502960;28;20046;-60
2022/11/15 03:00:58;;;;;;;2.72;2.30;;;;;;;20.51;40.52;99874.19;4501934;28;20585;-60
2022/11/15 03:03:33;;;;;;;2.20;1.95;;;;;;;20.51;40.15;99875.03;4502136;28;20985;-60
2022/11/15 03:06:25;;;;;;;2.13;1.92;;;;;;;20.50;40.52;99879.06;4499365;28;20042;-61
2022/11/15 03:09:40;;;;;;;2.55;2.22;;;;;;;20.51;40.18;99877.06;4502326;28;20049;-61
2022/11/15 03:12:16;;;;;;;3.40;2.20;;;;;;;20.48;40.08;99870.06;4501250;28;20046;-60
2022/11/15 03:14:57;;;;;;;2.45;1.95;;;;;;;20.45;40.21;99865.09;4501957;28;20589;-61
2022/11/15 03:17:58;;;;;;;2.53;2.20;;;;;;;20.49;40.24;99870.88;4501428;28;20080;-60
2022/11/15 03:20:28;;;;;;;2.22;2.03;;;;;;;20.49;39.92;99868.00;4501524;28;20041;-61
2022/11/15 03:23:04;;;;;;;2.35;2.10;;;;;;;20.48;40.05;99872.09;4502706;28;20037;-61
2022/11/15 03:25:36;;;;;;;2.65;2.20;;;;;;;20.49;39.86;99868.00;4502430;28;20049;-61
2022/11/15 03:28:08;;;;;;;2.30;2.00;;;;;;;20.48;40.20;99863.50;4502305;28;20038;-60
2022/11/15 03:30:39;;;;;;;2.72;1.90;;;;;;;20.46;40.06;99861.00;4501922;28;20045;-61
2022/11/15 03:33:10;;;;;;;2.20;2.00;;;;;;;20.46;40.00;99861.00;4511299;28;20081;-60
2022/11/15 03:35:44;;;;;;;2.45;2.25;;;;;;;20.47;40.00;99858.97;4502030;28;21436;-61
2022/11/15 03:38:29;;;;;;;2.65;2.15;;;;;;;20.46;40.28;99851.56;4504001;28;20636;-61
2022/11/15 03:41:01;;;;;;;2.25;2.05;;;;;;;20.47;40.51;99853.25;4504445;28;20037;-61
2022/11/15 03:43:44;;;;;;;2.90;2.30;;;;;;;20.46;40.54;99863.03;4505271;28;20046;-60
2022/11/15 03:46:25;;;;;;;2.47;2.10;;;;;;;20.47;40.65;99858.97;4504732;28;20050;-61
2022/11/15 03:49:00;;;;;;;2.83;2.20;;;;;;;20.45;40.36;99858.53;4504957;28;20050;-61
2022/11/15 03:51:29;;;;;;;3.40;2.20;;;;;;;20.44;40.40;99859.72;4504654;28;20046;-61
2022/11/15 03:53:58;;;;;;;2.30;2.10;;;;;;;20.46;40.70;99868.78;4504854;28;20034;-61
2022/11/15 03:56:27;;;;;;;3.00;2.30;;;;;;;20.41;40.12;99851.88;4504803;28;20038;-61
2022/11/15 03:58:56;;;;;;;3.58;2.15;;;;;;;20.42;39.75;99853.56;4504474;28;20054;-60
2022/11/15 04:01:25;;;;;;;2.88;2.20;;;;;;;20.44;39.80;99862.59;4504622;28;20042;-60
2022/11/15 04:03:54;;;;;;;3.00;2.45;;;;;;;20.44;39.65;99859.72;4504807;28;20050;-61
2022/11/15 04:06:23;;;;;;;4.05;2.60;;;;;;;20.40;39.68;99858.84;4500070;28;20053;-61
2022/11/15 04:08:52;;;;;;;3.53;2.78;;;;;;;20.43;39.78;99863.81;4504762;28;20651;-60
2022/11/15 04:11:21;;;;;;;4.15;2.72;;;;;;;20.42;39.74;99853.56;4504532;28;20082;-61
2022/11/15 04:13:50;;;;;;;2.72;2.53;;;;;;;20.42;39.79;99862.16;4504556;28;20054;-60
2022/11/15 04:16:19;;;;;;;2.85;2.50;;;;;;;20.41;39.58;99861.31;4501954;28;20034;-61
2022/11/15 04:24:11;;;;;;;3.10;2.53;;;;;;;20.41;39.93;99854.75;4504577;28;20046;-61
2022/11/15 04:24:24;;;;;;;3.03;2.50;;;;;;;20.41;39.93;99863.34;4504783;28;19917;-61
2022/11/15 04:26:53;;;;;;;2.80;2.40;;;;;;;20.41;39.85;99861.31;4504334;28;20038;-61
2022/11/15 04:29:35;;;;;;;3.58;2.60;;;;;;;20.40;40.26;99861.72;4504177;28;20050;-61
2022/11/15 04:32:06;;;;;;;2.53;2.30;;;;;;;20.41;40.45;99866.22;4502400;28;20042;-60
2022/11/15 04:34:35;;;;;;;2.17;1.98;;;;;;;20.38;41.04;99861.25;4500234;28;20521;-61
2022/11/15 04:37:13;;;;;;;2.53;2.13;;;;;;;20.29;41.16;99852.94;4501047;28;20022;-60
2022/11/15 04:39:43;;;;;;;2.45;2.10;;;;;;;20.40;41.37;99864.56;4504236;28;20083;-61
2022/11/15 04:42:12;;;;;;;2.55;2.22;;;;;;;20.39;40.82;99866.59;4503848;28;20046;-60
2022/11/15 04:44:41;;;;;;;3.05;2.72;;;;;;;20.38;40.74;99867.00;4503656;28;20050;-60
2022/11/15 04:47:10;;;;;;;2.85;2.45;;;;;;;20.38;41.03;99864.97;4504539;28;20050;-60
2022/11/15 04:49:39;;;;;;;2.95;2.53;;;;;;;20.39;40.87;99862.94;4503008;28;20038;-60
2022/11/15 04:52:08;;;;;;;2.67;2.40;;;;;;;20.37;41.13;99860.47;4503262;28;20073;-60
2022/11/15 04:54:37;;;;;;;2.90;2.22;;;;;;;20.38;41.20;99853.50;4504068;28;20058;-61
2022/11/15 04:57:06;;;;;;;2.72;2.30;;;;;;;20.37;41.43;99859.63;4504139;28;20041;-61
2022/11/15 04:59:34;;;;;;;2.50;2.30;;;;;;;20.39;41.52;99862.94;4503860;28;20034;-60
2022/11/15 05:02:03;;;;;;;2.80;2.50;;;;;;;20.36;41.36;99850.19;4503472;22;20050;-61
2022/11/15 05:04:33;;;;;;;2.80;2.25;;;;;;;20.37;41.43;99859.63;4491006;28;20050;-60
2022/11/15 05:07:03;;;;;;;3.33;2.42;;;;;;;20.37;41.24;99865.34;4492687;28;20042;-61
2022/11/15 05:09:32;;;;;;;2.60;2.25;;;;;;;20.34;41.49;99861.19;4490723;28;20046;-61
2022/11/15 05:12:02;;;;;;;3.10;2.40;;;;;;;20.37;41.70;99865.34;4492469;28;20077;-61
2022/11/15 05:14:31;;;;;;;2.92;2.50;;;;;;;20.32;41.92;99857.06;4490849;28;20463;-60
2022/11/15 05:17:00;;;;;;;3.00;2.58;;;;;;;20.32;41.43;99857.06;4490500;28;20045;-61
2022/11/15 05:19:29;;;;;;;3.13;2.40;;;;;;;20.30;41.92;99859.47;4491869;28;21261;-60
2022/11/15 05:21:58;;;;;;;3.03;2.72;;;;;;;20.34;41.57;99866.13;4490453;28;20972;-61
2022/11/15 05:24:27;;;;;;;2.95;2.65;;;;;;;20.35;41.44;99859.16;4491180;28;20986;-60
2022/11/15 05:26:56;;;;;;;2.97;2.63;;;;;;;20.32;41.59;99854.19;4492106;28;20074;-60
2022/11/15 05:29:25;;;;;;;3.20;2.90;;;;;;;20.29;41.28;99850.06;4491468;28;20045;-61
2022/11/15 05:31:54;;;;;;;3.58;2.90;;;;;;;20.35;41.23;99850.56;4490998;28;20569;-61
2022/11/15 05:34:25;;;;;;;3.42;2.67;;;;;;;20.32;41.44;99851.34;4490679;28;20058;-61
2022/11/15 05:36:55;;;;;;;3.20;2.50;;;;;;;20.34;41.41;99851.78;4490223;28;20043;-61
2022/11/15 05:39:25;;;;;;;3.22;2.88;;;;;;;20.34;41.72;99848.91;4491247;28;20042;-61
2022/11/15 05:42:02;;;;;;;3.40;2.80;;;;;;;20.32;41.68;99839.88;4490976;28;20038;-61
2022/11/15 05:44:33;;;;;;;3.47;3.00;;;;;;;20.33;41.72;99844.38;4489621;28;20046;-61
2022/11/15 05:47:04;;;;;;;3.03;2.65;;;;;;;20.33;41.52;99835.78;4490499;28;20145;-60
2022/11/15 05:49:36;;;;;;;3.00;2.70;;;;;;;20.32;41.50;99839.88;4490895;28;20042;-61
2022/11/15 05:52:07;;;;;;;3.10;2.60;;;;;;;20.31;41.35;99843.97;4491985;28;20129;-61
2022/11/15 05:54:37;;;;;;;3.83;2.65;;;;;;;20.27;41.25;99831.59;4490583;28;20058;-61
2022/11/15 05:57:06;;;;;;;2.95;2.60;;;;;;;20.31;41.27;99841.09;4491371;28;20046;-61
2022/11/15 05:59:37;;;;;;;3.13;2.80;;;;;;;20.31;41.34;99841.09;4490947;28;20093;-61
2022/11/15 06:02:06;;;;;;;3.45;3.10;;;;;;;20.27;41.37;99838.16;4488708;28;20081;-61
2022/11/15 06:04:35;;;;;;;2.60;2.40;;;;;;;20.29;41.54;99841.47;4492064;28;20149;-61
2022/11/15 06:07:04;;;;;;;3.08;2.65;;;;;;;20.27;41.54;99834.47;4490471;28;20039;-61
2022/11/15 06:09:33;;;;;;;2.83;2.53;;;;;;;20.31;41.68;99843.97;4491839;28;20034;-60
2022/11/15 06:12:02;;;;;;;3.58;2.80;;;;;;;20.28;41.44;99845.53;4496881;28;20449;-61
2022/11/15 06:14:30;;;;;;;3.22;2.58;;;;;;;20.30;41.67;99845.16;4489516;28;21125;-61
2022/11/15 06:16:59;;;;;;;3.17;2.83;;;;;;;20.31;41.80;99852.56;4489584;28;20050;-60
2022/11/15 06:19:32;;;;;;;2.65;2.45;;;;;;;20.23;41.67;99831.53;4490082;28;20041;-60
2022/11/15 06:22:02;;;;;;;2.75;2.55;;;;;;;20.29;41.74;99840.66;4490161;28;20086;-61
2022/11/15 06:24:30;;;;;;;2.55;2.35;;;;;;;20.27;41.83;99841.03;4489300;28;20029;-60
2022/11/15 06:26:59;;;;;;;3.20;2.60;;;;;;;20.28;41.62;99839.00;4490216;28;20042;-61
2022/11/15 06:29:28;;;;;;;2.63;2.42;;;;;;;20.27;41.39;99838.16;4487444;28;20874;-61
2022/11/15 06:31:57;;;;;;;2.83;2.40;;;;;;;20.29;41.55;99843.50;4494779;28;21268;-61
2022/11/15 06:34:26;;;;;;;2.70;2.30;;;;;;;20.26;41.89;99847.16;4489666;28;20085;-61
2022/11/15 06:36:55;;;;;;;2.53;2.33;;;;;;;20.27;41.88;99845.91;4488742;28;20046;-61
2022/11/15 06:39:24;;;;;;;2.40;2.20;;;;;;;20.27;41.77;99855.34;4488946;28;20042;-61
2022/11/15 06:41:53;;;;;;;2.92;2.70;;;;;;;20.27;42.00;99848.78;4489380;28;20110;-61
2022/11/15 06:44:22;;;;;;;3.35;2.40;;;;;;;20.24;42.04;99856.13;4489143;28;20565;-61
2022/11/15 06:46:52;;;;;;;2.78;2.45;;;;;;;20.25;42.26;99856.94;4489767;28;20584;-61
2022/11/15 06:49:20;;;;;;;2.42;2.22;;;;;;;20.24;41.95;99855.28;4488199;28;20129;-61
2022/11/15 06:51:49;;;;;;;2.28;2.08;;;;;;;20.24;42.06;99859.00;4489358;28;20209;-61
2022/11/15 06:54:20;;;;;;;3.38;2.40;;;;;;;20.25;41.85;99868.41;4488625;28;20092;-61
2022/11/15 06:56:50;;;;;;;2.70;2.17;;;;;;;20.25;41.80;99863.50;4487591;28;20054;-61
2022/11/15 06:59:19;;;;;;;2.80;2.13;;;;;;;20.22;42.05;99874.88;4489059;28;20077;-61
2022/11/15 07:01:49;;;;;;;2.80;2.35;;;;;;;20.23;42.05;99876.56;4488762;28;20507;-61
2022/11/15 07:04:18;;;;;;;2.30;2.10;;;;;;;20.21;41.30;99876.13;4487523;28;20050;-61
2022/11/15 07:06:48;;;;;;;2.50;2.30;;;;;;;20.23;41.52;99885.97;4487686;28;20050;-61
2022/11/15 07:09:17;;;;;;;2.30;2.10;;;;;;;20.24;41.78;99892.53;4488273;28;20047;-61
2022/11/15 07:11:46;;;;;;;2.50;2.10;;;;;;;20.19;41.58;99887.97;4488954;28;20790;-61
2022/11/15 07:14:14;;;;;;;2.30;1.88;;;;;;;20.23;42.00;99899.50;4497458;28;20062;-61
2022/11/15 07:16:43;;;;;;;2.67;2.20;;;;;;;20.23;42.10;99896.63;4489363;28;20053;-61
2022/11/15 07:19:13;;;;;;;2.63;2.25;;;;;;;20.23;41.95;99893.75;4491628;28;20042;-61
2022/11/15 07:21:42;;;;;;;2.17;1.98;;;;;;;20.23;42.51;99896.63;4491239;28;20046;-61
2022/11/15 07:24:11;;;;;;;2.35;1.95;;;;;;;20.23;42.68;99893.75;4491024;28;20801;-62
2022/11/15 07:26:40;;;;;;;2.15;1.95;;;;;;;20.22;42.74;99901.53;4491810;28;20030;-62
2022/11/15 07:29:09;;;;;;;1.98;1.80;;;;;;;20.10;42.85;99886.53;4498811;28;20629;-60
2022/11/15 07:31:38;;;;;;;2.10;1.70;;;;;;;20.19;43.35;99898.59;4493994;28;21011;-60
2022/11/15 07:34:08;;;;;;;1.73;1.55;;;;;;;20.21;43.41;99901.91;4493165;28;20054;-59
2022/11/15 07:36:37;;;;;;;1.70;1.50;;;;;;;20.18;43.10;99891.22;4491692;28;20042;-59
2022/11/15 07:39:06;;;;;;;1.58;1.48;;;;;;;20.19;43.33;99898.59;4491080;28;20042;-60
2022/11/15 07:41:35;;;;;;;2.60;1.40;;;;;;;20.19;43.64;99896.56;4491343;28;20141;-59
2022/11/15 07:44:04;;;;;;;1.52;1.20;;;;;;;20.22;43.99;99903.53;4492197;28;21179;-60
2022/11/15 07:46:33;;;;;;;1.30;1.00;;;;;;;20.21;44.59;99899.88;4491012;28;20046;-60
2022/11/15 07:49:02;;;;;;;1.13;1.02;;;;;;;20.21;44.60;99901.91;4492332;28;20039;-61
2022/11/15 07:51:31;;;;;;;1.00;0.95;;;;;;;20.19;44.99;99904.31;4491621;28;20050;-60
2022/11/15 07:54:01;;;;;;;1.15;1.00;;;;;;;20.20;44.82;99906.00;4492391;28;20172;-60
2022/11/15 07:56:29;;;;;;;0.80;0.80;;;;;;;20.19;44.96;99901.44;4505479;28;20055;-60
2022/11/15 07:58:59;;;;;;;1.40;1.08;;;;;;;20.20;44.99;99903.13;4491162;28;20038;-60
2022/11/15 08:01:27;;;;;;;1.00;0.90;;;;;;;20.20;44.99;99912.53;4490792;28;20054;-60
2022/11/15 08:03:56;;;;;;;1.00;0.90;;;;;;;20.21;44.95;99904.75;4492053;28;20045;-60
2022/11/15 08:06:26;;;;;;;1.20;1.00;;;;;;;20.21;45.19;99913.38;4491985;28;20074;-60
2022/11/15 08:08:55;;;;;;;1.10;0.90;;;;;;;20.18;45.18;99911.25;4491262;28;20050;-60
2022/11/15 08:11:24;;;;;;;0.70;0.70;;;;;;;20.19;45.29;99899.41;4491008;28;20090;-60
2022/11/15 08:13:53;;;;;;;1.30;1.20;;;;;;;20.19;45.64;99907.19;4490588;28;20051;-61
2022/11/15 08:16:22;;;;;;;1.20;1.08;;;;;;;20.19;46.04;99904.31;4490912;28;20046;-60
2022/11/15 08:18:51;;;;;;;1.42;1.02;;;;;;;20.20;46.13;99906.00;4490336;28;20964;-61
2022/11/15 08:21:20;;;;;;;0.82;0.82;;;;;;;20.19;45.92;99904.31;4493399;28;20440;-60
2022/11/15 08:23:50;;;;;;;1.05;0.90;;;;;;;20.18;45.73;99905.53;4490264;28;20875;-60
2022/11/15 08:26:19;;;;;;;1.27;1.00;;;;;;;20.19;45.87;99908.00;4488333;28;20846;-60
2022/11/15 08:28:47;;;;;;;1.20;0.90;;;;;;;20.18;45.95;99896.94;4490286;28;21437;-60
2022/11/15 08:31:18;;;;;;;0.85;0.80;;;;;;;20.20;45.80;99906.00;4490564;28;20081;-60
2022/11/15 08:33:47;;;;;;;1.17;1.00;;;;;;;20.19;45.82;99898.59;4491479;28;20133;-59
2022/11/15 08:36:17;;;;;;;0.98;0.88;;;;;;;20.19;45.37;99896.56;4490384;28;20050;-60
2022/11/15 08:38:46;;;;;;;0.70;0.70;;;;;;;20.17;45.10;99886.69;4490371;28;20046;-60
2022/11/15 08:41:31;;;;;;;0.70;0.70;;;;;;;20.17;44.52;99896.09;4490194;28;20050;-61
2022/11/15 08:44:00;;;;;;;0.98;0.80;;;;;;;20.19;43.82;99892.84;4490101;28;20038;-60
2022/11/15 08:46:29;;;;;;;0.60;0.60;;;;;;;20.16;43.89;99887.88;4496649;28;20046;-60
2022/11/15 08:48:58;;;;;;;0.57;0.57;;;;;;;20.17;43.44;99892.44;4490902;28;20084;-60
2022/11/15 08:51:27;;;;;;;0.60;0.60;;;;;;;20.18;43.68;99897.78;4500750;22;20766;-60
2022/11/15 08:53:56;;;;;;;0.73;0.60;;;;;;;20.18;43.25;99897.78;4501893;28;20101;-58
2022/11/15 08:56:25;;;;;;;1.30;0.60;;;;;;;20.16;43.12;99896.47;4501275;28;20042;-60
2022/11/15 08:58:54;;;;;;;0.50;0.50;;;;;;;20.16;43.20;99893.63;4500669;28;20042;-60
2022/11/15 09:01:23;;;;;;;0.70;0.70;;;;;;;20.16;42.68;99896.47;4496290;28;20133;-60
2022/11/15 09:03:52;;;;;;;0.60;0.60;;;;;;;20.16;42.25;99893.63;4483521;28;20046;-61
2022/11/15 09:06:21;;;;;;;0.60;0.60;;;;;;;20.16;42.16;99899.34;4484389;28;20042;-60
2022/11/15 09:08:50;;;;;;;0.70;0.50;;;;;;;20.17;42.00;99892.44;4484521;28;20042;-60
2022/11/15 09:11:21;;;;;;;0.82;0.60;;;;;;;20.12;41.86;99887.78;4483084;28;20597;-60
2022/11/15 09:13:50;;;;;;;0.60;0.60;;;;;;;20.17;42.05;99901.03;4484834;28;20894;-60
2022/11/15 09:16:19;;;;;;;0.55;0.50;;;;;;;20.13;42.01;99889.47;4483859;28;20161;-60
2022/11/15 09:18:47;;;;;;;0.40;0.40;;;;;;;20.15;42.07;99903.44;4484350;28;20042;-60
2022/11/15 09:21:17;;;;;;;0.60;0.60;;;;;;;20.16;41.87;99902.22;4484450;28;20046;-60
2022/11/15 09:23:46;;;;;;;1.02;0.50;;;;;;;20.18;41.91;99902.66;4483291;28;20034;-60
2022/11/15 09:26:15;;;;;;;0.47;0.47;;;;;;;20.14;41.68;99893.16;4485170;28;20135;-60
2022/11/15 09:28:44;;;;;;;0.45;0.43;;;;;;;20.18;41.44;99894.91;4484037;28;20046;-60
2022/11/15 09:31:13;;;;;;;0.50;0.50;;;;;;;20.15;41.35;99889.09;4482868;28;20081;-59
2022/11/15 09:33:45;;;;;;;0.95;0.55;;;;;;;20.19;41.50;99892.84;4482727;28;20133;-65
2022/11/15 09:36:14;;;;;;;0.68;0.60;;;;;;;20.18;41.82;99897.78;4482332;28;20046;-64
2022/11/15 09:38:43;;;;;;;1.17;0.60;;;;;;;20.19;41.74;99898.59;4482621;28;20081;-64
2022/11/15 09:41:12;;;;;;;0.65;0.50;;;;;;;20.20;41.48;99894.53;4483293;28;20050;-65
2022/11/15 09:44:13;;;;;;;0.82;0.60;;;;;;;20.18;41.52;99900.63;4483677;28;20042;-65
2022/11/15 09:47:02;;;;;;;0.50;0.40;;;;;;;20.18;41.59;99891.22;4483409;28;20046;-64
2022/11/15 09:49:53;;;;;;;0.50;0.50;;;;;;;20.19;41.52;99893.69;4488801;28;20031;-64
2022/11/15 09:52:11;;;;;;;1.00;0.55;;;;;;;20.20;41.35;99894.53;4486628;28;20030;-64
2022/11/15 09:54:30;;;;;;;0.77;0.60;;;;;;;20.20;41.25;99888.78;4482116;28;20540;-64
2022/11/15 09:56:43;;;;;;;0.70;0.70;;;;;;;20.20;41.64;99889.59;4483698;28;20182;-64
2022/11/15 09:59:28;;;;;;;0.55;0.52;;;;;;;20.21;41.24;99881.84;4484271;28;20038;-62
2022/11/15 10:02:04;;;;;;;0.50;0.50;;;;;;;20.21;41.23;99881.84;4500230;22;20055;-64
2022/11/15 10:04:14;;;;;;;0.90;0.80;;;;;;;20.21;41.31;99876.94;4507212;28;20037;-64
2022/11/15 10:06:26;;;;;;;0.60;0.60;;;;;;;20.20;41.24;99880.19;4507665;28;20037;-64
2022/11/15 10:09:07;;;;;;;0.52;0.52;;;;;;;20.22;41.67;99881.47;4507886;28;20037;-64
2022/11/15 10:11:22;;;;;;;0.40;0.40;;;;;;;20.22;41.40;99874.88;4506610;28;20674;-64
2022/11/15 10:13:36;;;;;;;0.90;0.70;;;;;;;20.22;41.33;99874.88;4517127;28;20152;-64
2022/11/15 10:15:48;;;;;;;1.45;0.80;;;;;;;20.20;41.57;99868.75;4506794;28;20029;-65
2022/11/15 10:18:12;;;;;;;0.98;0.90;;;;;;;20.23;41.37;99865.09;4508363;28;20034;-64
2022/11/15 10:20:26;;;;;;;0.95;0.70;;;;;;;20.24;41.33;99867.59;4508513;28;20815;-64
2022/11/15 10:22:50;;;;;;;0.75;0.75;;;;;;;20.24;41.52;99861.84;4514818;22;20533;-64
2022/11/15 10:25:18;;;;;;;0.73;0.68;;;;;;;20.24;41.38;99858.16;4504945;28;20038;-64
2022/11/15 10:27:29;;;;;;;;;;;;;;;20.24;41.37;99852.41;4506605;28;20029;-64
2022/11/15 10:29:47;;;;;;;0.70;0.60;;;;;;;20.25;41.44;99856.94;4510079;28;20458;-65
2022/11/15 10:31:58;;;;;;;1.52;0.88;;;;;;;20.24;41.67;99847.53;4505443;28;20041;-65
2022/11/15 10:34:13;;;;;;;0.60;0.60;;;;;;;20.25;41.33;99848.34;4505459;28;20038;-64
2022/11/15 10:36:25;;;;;;;0.80;0.60;;;;;;;20.25;41.16;99831.13;4505595;28;20030;-64
2022/11/15 10:38:50;;;;;;;0.70;0.70;;;;;;;20.26;40.59;99821.34;4508468;28;20096;-64
2022/11/15 10:41:07;;;;;;;0.80;0.80;;;;;;;20.24;40.72;99810.28;4507148;28;20616;-65
2022/11/15 10:43:18;;;;;;;;;;;;;;;20.27;40.51;99814.41;4507790;28;20036;-64
2022/11/15 10:45:31;;;;;;;0.80;0.80;;;;;;;20.26;40.73;99801.28;4507249;28;21131;-65
2022/11/15 10:47:41;;;;;;;0.70;0.70;;;;;;;20.23;40.75;99802.06;4507572;28;20026;-65
2022/11/15 10:49:58;;;;;;;1.08;0.90;;;;;;;20.27;40.71;99803.78;4507697;28;20522;-64
2022/11/15 10:52:11;;;;;;;1.05;0.95;;;;;;;20.28;40.62;99807.47;4505630;28;20084;-65
2022/11/15 10:54:54;;;;;;;1.15;0.80;;;;;;;20.28;40.33;99804.59;4507479;28;20145;-65
2022/11/15 10:57:21;;;;;;;0.75;0.75;;;;;;;20.26;40.06;99798.44;4507481;28;20039;-65
2022/11/15 10:59:36;;;;;;;0.73;0.73;;;;;;;20.30;39.91;99790.69;4507116;28;20038;-65
2022/11/15 11:01:48;;;;;;;1.35;0.90;;;;;;;20.29;39.89;99789.06;4507992;28;20034;-65
2022/11/15 11:04:04;;;;;;;0.88;0.80;;;;;;;20.31;40.32;99787.44;4507092;28;20653;-65
2022/11/15 11:06:17;;;;;;;0.85;0.82;;;;;;;20.32;40.54;99791.16;4507050;28;20730;-64
2022/11/15 11:08:27;;;;;;;0.65;0.65;;;;;;;20.27;40.29;99777.16;4506696;28;20046;-64
2022/11/15 11:10:39;;;;;;;0.88;0.73;;;;;;;20.33;40.33;99782.16;4508010;28;20466;-64
2022/11/15 11:12:49;;;;;;;0.88;0.80;;;;;;;20.31;40.25;99775.97;4515063;28;20485;-65
2022/11/15 11:15:09;;;;;;;0.75;0.75;;;;;;;20.31;40.52;99778.03;4507306;28;20453;-66
2022/11/15 11:18:15;;;;;;;0.80;0.80;;;;;;;20.36;40.74;99786.31;4505818;28;20058;-65
2022/11/15 11:20:35;;;;;;;0.93;0.80;;;;;;;20.36;39.88;99784.25;4454302;28;20049;-65
2022/11/15 11:23:02;;;;;;;0.88;0.73;;;;;;;20.37;40.03;99785.09;4506020;28;20089;-65
2022/11/15 11:25:24;;;;;;;0.80;0.70;;;;;;;20.38;40.09;99789.59;4504786;28;20034;-65
2022/11/15 11:27:52;;;;;;;0.85;0.60;;;;;;;20.37;39.99;99783.06;4507092;28;20033;-65
2022/11/15 11:30:06;;;;;;;;;;;;;;;20.39;39.68;99765.47;4522383;28;20037;-65
2022/11/15 11:32:37;;;;;;;0.60;0.60;;;;;;;20.39;39.81;99760.56;4506458;28;20396;-65
2022/11/15 11:35:02;;;;;;;0.80;0.80;;;;;;;20.39;39.78;99754.03;4507143;28;20045;-65
2022/11/15 11:37:28;;;;;;;0.60;0.60;;;;;;;20.42;39.89;99756.09;4505279;28;20060;-65
2022/11/15 11:40:00;;;;;;;0.88;0.65;;;;;;;20.42;39.67;99753.25;4506513;28;20042;-65
2022/11/15 11:42:24;;;;;;;0.70;0.70;;;;;;;20.39;39.63;99740.50;4505881;28;20038;-65
2022/11/15 11:44:54;;;;;;;1.00;0.80;;;;;;;20.41;39.66;99737.25;4505947;28;20029;-64
2022/11/15 11:47:11;;;;;;;0.85;0.60;;;;;;;20.43;39.74;99721.31;4504773;28;20127;-64
2022/11/15 11:49:39;;;;;;;0.80;0.63;;;;;;;20.44;39.36;99727.88;4506145;28;20045;-65
2022/11/15 11:52:27;;;;;;;0.60;0.60;;;;;;;20.46;39.52;99728.31;4506626;28;20570;-64